Flight Track Log - Related Links

Times and Time Zones

All times are in EDT time to prevent confusion due to time zone crossing. See the EJA829P flight status page for this flight to view local times or setup timezone preferences in your user account.

Time Position Orientation Groundspeed Altitude Reporting Facility
EDT Latitude Longitude Course Direction KTS MPH feet Rate Location/Type
Tue 08:56:04 AM 40.8167 -74.1167 252° West 182 209 1,900  Level New York TRACON
Tue 08:57:04 AM 40.8167 -74.1833 270° West 201 231 4,400 2,550 Climbing New York TRACON
Tue 08:58:04 AM 40.8000 -74.2833 258° West 276 318 7,000 2,674 Climbing New York TRACON
Tue 09:00:17 AM 40.7739 -74.4869 260° West 291 335 13,000 2,450 Climbing New York Center
Tue 09:01:00 AM 40.6545 -74.6823 252° West  Level FlightAware Approximate
Tue 09:01:15 AM 40.7847 -74.6106 277° West 296 341 14,800  Level New York Center
Tue 09:02:16 AM 40.7647 -74.7108 255° West 296 341 16,000 984 Climbing New York Center
Tue 09:03:17 AM 40.7011 -74.8031 228° Southwest 314 361 16,800 600 Climbing New York Center
Tue 09:04:16 AM 40.6481 -74.8931 232° Southwest 334 384 17,200 1,100 Climbing New York Center
Tue 09:05:17 AM 40.5842 -74.9903 229° Southwest 354 407 19,000 1,884 Climbing New York Center
Tue 09:06:17 AM 40.5222 -75.0903 231° Southwest 354 407 21,000 2,034 Climbing New York Center
Tue 09:07:15 AM 40.4600 -75.1900 231° Southwest 359 413 23,000 1,966 Climbing New York Center
Tue 09:08:16 AM 40.3981 -75.2894 231° Southwest 359 413 24,900 1,686 Climbing New York Center
Tue 09:09:16 AM 40.3336 -75.3914 230° Southwest 364 419 26,400 1,636 Climbing New York Center
Tue 09:10:17 AM 40.2603 -75.5064 230° Southwest 371 427 28,200 1,664 Climbing New York Center
Tue 09:11:15 AM 40.1994 -75.6164 234° Southwest 371 427 29,700 1,513 Climbing New York Center
Tue 09:12:16 AM 40.1406 -75.7289 236° Southwest 376 433 31,200 1,488 Climbing New York Center
Tue 09:13:16 AM 40.0858 -75.8417 238° Southwest 376 433 32,700 1,361 Climbing New York Center
Tue 09:14:15 AM 40.0267 -75.9539 235° Southwest 382 440 33,900 488 Climbing New York Center
Tue 09:15:56 AM 39.9269 -76.1517 237° Southwest 401 461 34,000 38 Climbing Washington Center
Tue 09:16:54 AM 39.8597 -76.2781 235° Southwest 420 483 34,000  Level Washington Center
Tue 09:17:55 AM 39.7942 -76.4069 237° Southwest 420 483 34,000  Level Washington Center
Tue 09:18:55 AM 39.7267 -76.5303 235° Southwest 425 489 34,000  Level Washington Center
Tue 09:19:56 AM 39.6611 -76.6617 237° Southwest 425 489 34,000  Level Washington Center
Tue 09:20:56 AM 39.5931 -76.7872 235° Southwest 430 495 34,000  Level Washington Center
Tue 09:21:54 AM 39.5250 -76.9153 235° Southwest 435 501 34,000  Level Washington Center
Tue 09:22:55 AM 39.4444 -77.0347 229° Southwest 435 501 34,000 -344 Level Washington Center
Tue 09:23:56 AM 39.3475 -77.1347 219° Southwest 435 501 33,300 -836 Descending Washington Center
Tue 09:24:57 AM 39.2544 -77.2319 219° Southwest 440 506 32,300 -1,017 Descending Washington Center
Tue 09:25:54 AM 39.1614 -77.3289 219° Southwest 440 506 31,300 -1,008 Descending Washington Center
Tue 09:26:56 AM 39.0703 -77.4231 219° Southwest 435 501 30,300 -1,000 Descending Washington Center
Tue 09:27:54 AM 38.9792 -77.5169 219° Southwest 430 495 29,300 -966 Descending Washington Center
Tue 09:28:54 AM 38.8944 -77.6081 220° Southwest 435 501 28,400 -984 Descending Washington Center
Tue 09:29:56 AM 38.7819 -77.7167 217° Southwest 447 514 27,300 -984 Descending Washington Center
Tue 09:30:56 AM 38.6992 -77.8047 220° Southwest 447 514 26,400 -661 Descending Washington Center
Tue 09:31:54 AM 38.6117 -77.9111 224° Southwest 447 514 26,000 -203 Descending Washington Center
Tue 09:32:54 AM 38.5425 -78.0339 234° Southwest 437 503 26,000 -496 Level Washington Center
Tue 09:33:55 AM 38.4711 -78.1533 233° Southwest 437 503 25,000 -1,150 Descending Washington Center
Tue 09:34:54 AM 38.4019 -78.2728 234° Southwest 432 497 23,700 -2,622 Descending Washington Center
Tue 09:35:54 AM 38.3389 -78.3792 233° Southwest 411 473 19,800 -2,803 Descending Washington Center
Tue 09:36:56 AM 38.2781 -78.4828 233° Southwest 388 447 18,000 -1,525 Descending Washington Center
Tue 09:37:56 AM 38.2172 -78.5886 234° Southwest 375 432 16,700 -1,424 Descending Washington Center
Tue 09:38:54 AM 38.1583 -78.6894 233° Southwest 375 432 15,200 -1,627 Descending Washington Center
Tue 09:39:54 AM 38.0953 -78.7922 232° Southwest 354 407 13,500 -1,587 Descending Washington Center
Tue 09:40:55 AM 38.0383 -78.8847 232° Southwest 349 402 12,000 -744 Descending Washington Center
Tue 09:41:55 AM 37.9836 -78.9772 233° Southwest 338 389 12,000  Level Washington Center
Tue 09:42:56 AM 37.9269 -79.0694 232° Southwest 338 389 12,000 -50 Level Washington Center
Tue 09:43:56 AM 37.8767 -79.1486 231° Southwest 338 389 11,900 51 Descending Washington Center
Tue 09:44:54 AM 37.8197 -79.2381 231° Southwest 338 389 12,100  Climbing Washington Center
Tue 09:45:55 AM 37.7583 -79.3297 230° Southwest 338 389 11,900 -595 Descending Washington Center
Tue 09:46:55 AM 37.6928 -79.4236 229° Southwest 325 374 10,900 -942 Descending Washington Center
Tue 09:47:56 AM 37.6358 -79.5097 230° Southwest 320 368 10,000 -744 Descending Washington Center
Tue 09:48:56 AM 37.5808 -79.5961 231° Southwest 320 368 9,400 -763 Descending Washington Center
Tue 09:49:54 AM 37.5367 -79.6669 232° Southwest 295 339 8,500 -1,525 Descending Washington Center
Tue 09:50:54 AM 37.4986 -79.7436 238° Southwest 267 307 6,400 -1,934 Descending Washington Center
Tue 09:51:55 AM 37.4531 -79.7961 222° Southwest 250 288 4,600 -1,574 Descending Washington Center
Tue 09:52:56 AM 37.4069 -79.8614 228° Southwest 243 280 3,200 -1,059 Descending Washington Center
Tue 09:53:54 AM 37.3717 -79.9117 229° Southwest 221 254 2,500 -756 Descending Washington Center
Tue 09:54:55 AM 37.3517 -79.9419 230° Southwest 164 189 1,700 -787 Descending Washington Center

Login

Don't have an account? Register now (free) for customized features, flight alerts, and more!